sensor_id;sensor_type;location;lat;lon;timestamp;P1;P2;P0
73517;PMS5003;61766;60.318;25.044;2022-11-25T00:02:13;12;10;
73517;PMS5003;61766;60.318;25.044;2022-11-25T00:04:38;14;13;
73517;PMS5003;61766;60.318;25.044;2022-11-25T00:07:04;11;10;
73517;PMS5003;61766;60.318;25.044;2022-11-25T00:09:29;13;11;
73517;PMS5003;61766;60.318;25.044;2022-11-25T00:11:54;13;13;
73517;PMS5003;61766;60.318;25.044;2022-11-25T00:14:20;11;11;
73517;PMS5003;61766;60.318;25.044;2022-11-25T00:16:45;10;10;
73517;PMS5003;61766;60.318;25.044;2022-11-25T00:19:10;13;13;
73517;PMS5003;61766;60.318;25.044;2022-11-25T00:21:36;14;14;
73517;PMS5003;61766;60.318;25.044;2022-11-25T00:24:02;10;10;
73517;PMS5003;61766;60.318;25.044;2022-11-25T00:26:27;13;11;
73517;PMS5003;61766;60.318;25.044;2022-11-25T00:28:52;13;11;
73517;PMS5003;61766;60.318;25.044;2022-11-25T00:31:18;12;12;
73517;PMS5003;61766;60.318;25.044;2022-11-25T00:33:44;10;10;
73517;PMS5003;61766;60.318;25.044;2022-11-25T00:36:13;13;10;
73517;PMS5003;61766;60.318;25.044;2022-11-25T00:38:34;10;9;
73517;PMS5003;61766;60.318;25.044;2022-11-25T00:41:00;11;11;
73517;PMS5003;61766;60.318;25.044;2022-11-25T00:43:25;10;10;
73517;PMS5003;61766;60.318;25.044;2022-11-25T00:45:51;12;12;
73517;PMS5003;61766;60.318;25.044;2022-11-25T00:48:16;15;14;
73517;PMS5003;61766;60.318;25.044;2022-11-25T00:50:42;11;11;
73517;PMS5003;61766;60.318;25.044;2022-11-25T00:53:08;13;13;
73517;PMS5003;61766;60.318;25.044;2022-11-25T00:55:33;15;10;
73517;PMS5003;61766;60.318;25.044;2022-11-25T00:57:58;10;9;
73517;PMS5003;61766;60.318;25.044;2022-11-25T01:00:24;10;10;
73517;PMS5003;61766;60.318;25.044;2022-11-25T01:02:50;13;11;
73517;PMS5003;61766;60.318;25.044;2022-11-25T01:05:15;12;10;
73517;PMS5003;61766;60.318;25.044;2022-11-25T01:07:40;14;13;
73517;PMS5003;61766;60.318;25.044;2022-11-25T01:10:06;12;12;
73517;PMS5003;61766;60.318;25.044;2022-11-25T01:12:31;10;10;
73517;PMS5003;61766;60.318;25.044;2022-11-25T01:14:56;14;11;
73517;PMS5003;61766;60.318;25.044;2022-11-25T01:17:22;12;12;
73517;PMS5003;61766;60.318;25.044;2022-11-25T01:19:47;12;12;
73517;PMS5003;61766;60.318;25.044;2022-11-25T01:22:12;10;10;
73517;PMS5003;61766;60.318;25.044;2022-11-25T01:24:38;9;9;
73517;PMS5003;61766;60.318;25.044;2022-11-25T01:27:03;12;10;
73517;PMS5003;61766;60.318;25.044;2022-11-25T01:29:28;13;10;
73517;PMS5003;61766;60.318;25.044;2022-11-25T01:31:54;13;13;
73517;PMS5003;61766;60.318;25.044;2022-11-25T01:34:19;10;10;
73517;PMS5003;61766;60.318;25.044;2022-11-25T01:36:45;10;9;
73517;PMS5003;61766;60.318;25.044;2022-11-25T01:39:12;13;13;
73517;PMS5003;61766;60.318;25.044;2022-11-25T01:41:36;9;9;
73517;PMS5003;61766;60.318;25.044;2022-11-25T01:44:03;12;12;
73517;PMS5003;61766;60.318;25.044;2022-11-25T01:46:27;10;10;
73517;PMS5003;61766;60.318;25.044;2022-11-25T01:48:53;9;8;
73517;PMS5003;61766;60.318;25.044;2022-11-25T01:51:19;14;13;
73517;PMS5003;61766;60.318;25.044;2022-11-25T01:53:43;10;9;
73517;PMS5003;61766;60.318;25.044;2022-11-25T01:56:09;14;14;
73517;PMS5003;61766;60.318;25.044;2022-11-25T01:58:34;16;13;
73517;PMS5003;61766;60.318;25.044;2022-11-25T02:00:59;8;8;
73517;PMS5003;61766;60.318;25.044;2022-11-25T02:03:26;12;12;
73517;PMS5003;61766;60.318;25.044;2022-11-25T02:05:51;14;14;
73517;PMS5003;61766;60.318;25.044;2022-11-25T02:08:15;12;12;
73517;PMS5003;61766;60.318;25.044;2022-11-25T02:10:40;10;10;
73517;PMS5003;61766;60.318;25.044;2022-11-25T02:13:06;13;13;
73517;PMS5003;61766;60.318;25.044;2022-11-25T02:15:32;14;13;
73517;PMS5003;61766;60.318;25.044;2022-11-25T02:17:56;9;9;
73517;PMS5003;61766;60.318;25.044;2022-11-25T02:20:22;12;12;
73517;PMS5003;61766;60.318;25.044;2022-11-25T02:22:51;13;12;
73517;PMS5003;61766;60.318;25.044;2022-11-25T02:25:14;10;10;
73517;PMS5003;61766;60.318;25.044;2022-11-25T02:27:38;9;9;
73517;PMS5003;61766;60.318;25.044;2022-11-25T02:30:04;11;11;
73517;PMS5003;61766;60.318;25.044;2022-11-25T02:32:28;10;10;
73517;PMS5003;61766;60.318;25.044;2022-11-25T02:34:54;13;13;
73517;PMS5003;61766;60.318;25.044;2022-11-25T02:37:20;15;14;
73517;PMS5003;61766;60.318;25.044;2022-11-25T02:39:45;14;14;
73517;PMS5003;61766;60.318;25.044;2022-11-25T02:42:10;14;13;
73517;PMS5003;61766;60.318;25.044;2022-11-25T02:44:35;14;13;
73517;PMS5003;61766;60.318;25.044;2022-11-25T02:47:01;12;12;
73517;PMS5003;61766;60.318;25.044;2022-11-25T02:49:26;14;10;
73517;PMS5003;61766;60.318;25.044;2022-11-25T02:51:52;14;13;
73517;PMS5003;61766;60.318;25.044;2022-11-25T02:54:18;14;12;
73517;PMS5003;61766;60.318;25.044;2022-11-25T02:56:43;16;14;
73517;PMS5003;61766;60.318;25.044;2022-11-25T02:59:08;13;13;
73517;PMS5003;61766;60.318;25.044;2022-11-25T03:01:34;13;13;
73517;PMS5003;61766;60.318;25.044;2022-11-25T03:03:59;13;13;
73517;PMS5003;61766;60.318;25.044;2022-11-25T03:06:24;14;12;
73517;PMS5003;61766;60.318;25.044;2022-11-25T03:08:50;18;18;
73517;PMS5003;61766;60.318;25.044;2022-11-25T03:11:15;13;13;
73517;PMS5003;61766;60.318;25.044;2022-11-25T03:13:40;13;13;
73517;PMS5003;61766;60.318;25.044;2022-11-25T03:16:06;15;15;
73517;PMS5003;61766;60.318;25.044;2022-11-25T03:18:31;13;13;
73517;PMS5003;61766;60.318;25.044;2022-11-25T03:20:57;13;12;
73517;PMS5003;61766;60.318;25.044;2022-11-25T03:23:23;10;10;
73517;PMS5003;61766;60.318;25.044;2022-11-25T03:25:47;14;13;
73517;PMS5003;61766;60.318;25.044;2022-11-25T03:28:12;13;13;
73517;PMS5003;61766;60.318;25.044;2022-11-25T03:30:38;13;13;
73517;PMS5003;61766;60.318;25.044;2022-11-25T03:33:04;12;12;
73517;PMS5003;61766;60.318;25.044;2022-11-25T03:35:29;15;13;
73517;PMS5003;61766;60.318;25.044;2022-11-25T03:37:54;18;16;
73517;PMS5003;61766;60.318;25.044;2022-11-25T03:40:20;17;16;
73517;PMS5003;61766;60.318;25.044;2022-11-25T03:42:45;18;16;
73517;PMS5003;61766;60.318;25.044;2022-11-25T03:45:11;18;16;
73517;PMS5003;61766;60.318;25.044;2022-11-25T03:47:36;18;18;
73517;PMS5003;61766;60.318;25.044;2022-11-25T03:50:01;15;15;
73517;PMS5003;61766;60.318;25.044;2022-11-25T03:52:26;16;15;
73517;PMS5003;61766;60.318;25.044;2022-11-25T03:54:52;21;17;
73517;PMS5003;61766;60.318;25.044;2022-11-25T03:57:17;15;14;
73517;PMS5003;61766;60.318;25.044;2022-11-25T03:59:43;17;14;
73517;PMS5003;61766;60.318;25.044;2022-11-25T04:02:08;17;16;
73517;PMS5003;61766;60.318;25.044;2022-11-25T04:04:34;14;14;
73517;PMS5003;61766;60.318;25.044;2022-11-25T04:06:59;21;18;
73517;PMS5003;61766;60.318;25.044;2022-11-25T04:09:25;20;18;
73517;PMS5003;61766;60.318;25.044;2022-11-25T04:11:51;24;22;
73517;PMS5003;61766;60.318;25.044;2022-11-25T04:14:17;18;17;
73517;PMS5003;61766;60.318;25.044;2022-11-25T04:16:43;16;14;
73517;PMS5003;61766;60.318;25.044;2022-11-25T04:19:09;19;18;
73517;PMS5003;61766;60.318;25.044;2022-11-25T04:21:34;18;16;
73517;PMS5003;61766;60.318;25.044;2022-11-25T04:24:00;14;14;
73517;PMS5003;61766;60.318;25.044;2022-11-25T04:26:25;16;15;
73517;PMS5003;61766;60.318;25.044;2022-11-25T04:28:50;13;12;
73517;PMS5003;61766;60.318;25.044;2022-11-25T04:31:16;14;13;
73517;PMS5003;61766;60.318;25.044;2022-11-25T04:33:42;16;16;
73517;PMS5003;61766;60.318;25.044;2022-11-25T04:36:07;18;18;
73517;PMS5003;61766;60.318;25.044;2022-11-25T04:38:33;19;19;
73517;PMS5003;61766;60.318;25.044;2022-11-25T04:40:58;18;16;
73517;PMS5003;61766;60.318;25.044;2022-11-25T04:43:23;19;16;
73517;PMS5003;61766;60.318;25.044;2022-11-25T04:45:49;17;17;
73517;PMS5003;61766;60.318;25.044;2022-11-25T04:48:14;18;17;
73517;PMS5003;61766;60.318;25.044;2022-11-25T04:50:40;20;20;
73517;PMS5003;61766;60.318;25.044;2022-11-25T04:53:05;18;17;
73517;PMS5003;61766;60.318;25.044;2022-11-25T04:55:31;15;15;
73517;PMS5003;61766;60.318;25.044;2022-11-25T04:57:57;18;17;
73517;PMS5003;61766;60.318;25.044;2022-11-25T05:00:23;16;15;
73517;PMS5003;61766;60.318;25.044;2022-11-25T05:02:48;16;16;
73517;PMS5003;61766;60.318;25.044;2022-11-25T05:05:14;17;17;
73517;PMS5003;61766;60.318;25.044;2022-11-25T05:07:39;16;16;
73517;PMS5003;61766;60.318;25.044;2022-11-25T05:10:05;19;18;
73517;PMS5003;61766;60.318;25.044;2022-11-25T05:12:30;17;17;
73517;PMS5003;61766;60.318;25.044;2022-11-25T05:14:56;18;18;
73517;PMS5003;61766;60.318;25.044;2022-11-25T05:17:22;20;16;
73517;PMS5003;61766;60.318;25.044;2022-11-25T05:19:46;18;18;
73517;PMS5003;61766;60.318;25.044;2022-11-25T05:22:12;22;19;
73517;PMS5003;61766;60.318;25.044;2022-11-25T05:24:37;17;17;
73517;PMS5003;61766;60.318;25.044;2022-11-25T05:27:02;18;18;
73517;PMS5003;61766;60.318;25.044;2022-11-25T05:29:28;15;15;
73517;PMS5003;61766;60.318;25.044;2022-11-25T05:31:53;16;16;
73517;PMS5003;61766;60.318;25.044;2022-11-25T05:34:19;18;17;
73517;PMS5003;61766;60.318;25.044;2022-11-25T05:36:44;21;21;
73517;PMS5003;61766;60.318;25.044;2022-11-25T05:39:10;21;20;
73517;PMS5003;61766;60.318;25.044;2022-11-25T05:41:36;17;17;
73517;PMS5003;61766;60.318;25.044;2022-11-25T05:44:01;21;19;
73517;PMS5003;61766;60.318;25.044;2022-11-25T05:46:26;19;19;
73517;PMS5003;61766;60.318;25.044;2022-11-25T05:48:52;26;22;
73517;PMS5003;61766;60.318;25.044;2022-11-25T05:51:17;18;18;
73517;PMS5003;61766;60.318;25.044;2022-11-25T05:53:42;19;18;
73517;PMS5003;61766;60.318;25.044;2022-11-25T05:56:08;21;21;
73517;PMS5003;61766;60.318;25.044;2022-11-25T05:58:34;18;17;
73517;PMS5003;61766;60.318;25.044;2022-11-25T06:01:00;21;19;
73517;PMS5003;61766;60.318;25.044;2022-11-25T06:03:26;26;25;
73517;PMS5003;61766;60.318;25.044;2022-11-25T06:05:51;19;19;
73517;PMS5003;61766;60.318;25.044;2022-11-25T06:08:16;21;21;
73517;PMS5003;61766;60.318;25.044;2022-11-25T06:10:41;23;23;
73517;PMS5003;61766;60.318;25.044;2022-11-25T06:13:06;28;26;
73517;PMS5003;61766;60.318;25.044;2022-11-25T06:15:32;36;33;
73517;PMS5003;61766;60.318;25.044;2022-11-25T06:17:57;31;30;
73517;PMS5003;61766;60.318;25.044;2022-11-25T06:20:23;30;29;
73517;PMS5003;61766;60.318;25.044;2022-11-25T06:22:48;31;31;
73517;PMS5003;61766;60.318;25.044;2022-11-25T06:25:14;31;30;
73517;PMS5003;61766;60.318;25.044;2022-11-25T06:27:39;25;24;
73517;PMS5003;61766;60.318;25.044;2022-11-25T06:30:05;31;30;
73517;PMS5003;61766;60.318;25.044;2022-11-25T06:32:30;29;27;
73517;PMS5003;61766;60.318;25.044;2022-11-25T06:34:55;24;22;
73517;PMS5003;61766;60.318;25.044;2022-11-25T06:37:21;23;23;
73517;PMS5003;61766;60.318;25.044;2022-11-25T06:39:47;24;21;
73517;PMS5003;61766;60.318;25.044;2022-11-25T06:42:13;26;25;
73517;PMS5003;61766;60.318;25.044;2022-11-25T06:44:38;23;21;
73517;PMS5003;61766;60.318;25.044;2022-11-25T06:47:04;21;20;
73517;PMS5003;61766;60.318;25.044;2022-11-25T06:49:29;24;24;
73517;PMS5003;61766;60.318;25.044;2022-11-25T06:51:55;20;19;
73517;PMS5003;61766;60.318;25.044;2022-11-25T06:54:20;19;17;
73517;PMS5003;61766;60.318;25.044;2022-11-25T06:56:45;18;18;
73517;PMS5003;61766;60.318;25.044;2022-11-25T06:59:10;18;17;
73517;PMS5003;61766;60.318;25.044;2022-11-25T07:01:36;15;15;
73517;PMS5003;61766;60.318;25.044;2022-11-25T07:04:02;18;18;
73517;PMS5003;61766;60.318;25.044;2022-11-25T07:06:28;16;16;
73517;PMS5003;61766;60.318;25.044;2022-11-25T07:08:53;21;17;
73517;PMS5003;61766;60.318;25.044;2022-11-25T07:11:19;19;19;
73517;PMS5003;61766;60.318;25.044;2022-11-25T07:13:43;17;16;
73517;PMS5003;61766;60.318;25.044;2022-11-25T07:16:09;18;17;
73517;PMS5003;61766;60.318;25.044;2022-11-25T07:18:34;19;18;
73517;PMS5003;61766;60.318;25.044;2022-11-25T07:21:02;15;15;
73517;PMS5003;61766;60.318;25.044;2022-11-25T07:23:26;17;16;
73517;PMS5003;61766;60.318;25.044;2022-11-25T07:25:51;18;17;
73517;PMS5003;61766;60.318;25.044;2022-11-25T07:28:16;15;14;
73517;PMS5003;61766;60.318;25.044;2022-11-25T07:30:42;21;19;
73517;PMS5003;61766;60.318;25.044;2022-11-25T07:33:07;14;13;
73517;PMS5003;61766;60.318;25.044;2022-11-25T07:35:33;18;17;
73517;PMS5003;61766;60.318;25.044;2022-11-25T07:37:59;15;14;
73517;PMS5003;61766;60.318;25.044;2022-11-25T07:40:25;18;17;
73517;PMS5003;61766;60.318;25.044;2022-11-25T07:42:50;14;14;
73517;PMS5003;61766;60.318;25.044;2022-11-25T07:45:16;19;19;
73517;PMS5003;61766;60.318;25.044;2022-11-25T07:47:41;18;18;
73517;PMS5003;61766;60.318;25.044;2022-11-25T07:50:07;18;18;
73517;PMS5003;61766;60.318;25.044;2022-11-25T07:52:32;18;17;
73517;PMS5003;61766;60.318;25.044;2022-11-25T07:54:57;18;17;
73517;PMS5003;61766;60.318;25.044;2022-11-25T07:57:23;18;17;
73517;PMS5003;61766;60.318;25.044;2022-11-25T07:59:49;28;25;
73517;PMS5003;61766;60.318;25.044;2022-11-25T08:02:15;21;20;
73517;PMS5003;61766;60.318;25.044;2022-11-25T08:04:40;17;16;
73517;PMS5003;61766;60.318;25.044;2022-11-25T08:07:06;19;19;
73517;PMS5003;61766;60.318;25.044;2022-11-25T08:09:31;21;18;
73517;PMS5003;61766;60.318;25.044;2022-11-25T08:11:57;15;15;
73517;PMS5003;61766;60.318;25.044;2022-11-25T08:14:23;16;15;
73517;PMS5003;61766;60.318;25.044;2022-11-25T08:16:48;18;17;
73517;PMS5003;61766;60.318;25.044;2022-11-25T08:19:14;16;16;
73517;PMS5003;61766;60.318;25.044;2022-11-25T08:21:39;17;17;
73517;PMS5003;61766;60.318;25.044;2022-11-25T08:24:05;16;14;
73517;PMS5003;61766;60.318;25.044;2022-11-25T08:26:32;16;15;
73517;PMS5003;61766;60.318;25.044;2022-11-25T08:28:57;15;15;
73517;PMS5003;61766;60.318;25.044;2022-11-25T08:31:23;16;15;
73517;PMS5003;61766;60.318;25.044;2022-11-25T08:33:47;13;13;
73517;PMS5003;61766;60.318;25.044;2022-11-25T08:36:12;16;14;
73517;PMS5003;61766;60.318;25.044;2022-11-25T08:38:37;14;14;
73517;PMS5003;61766;60.318;25.044;2022-11-25T08:41:07;14;13;
73517;PMS5003;61766;60.318;25.044;2022-11-25T08:43:28;10;9;
73517;PMS5003;61766;60.318;25.044;2022-11-25T08:45:53;10;10;
73517;PMS5003;61766;60.318;25.044;2022-11-25T08:48:19;16;15;
73517;PMS5003;61766;60.318;25.044;2022-11-25T08:50:46;15;14;
73517;PMS5003;61766;60.318;25.044;2022-11-25T08:53:10;14;13;
73517;PMS5003;61766;60.318;25.044;2022-11-25T08:55:35;14;14;
73517;PMS5003;61766;60.318;25.044;2022-11-25T08:58:00;9;9;
73517;PMS5003;61766;60.318;25.044;2022-11-25T09:00:26;12;12;
73517;PMS5003;61766;60.318;25.044;2022-11-25T09:02:51;14;11;
73517;PMS5003;61766;60.318;25.044;2022-11-25T09:05:16;10;10;
73517;PMS5003;61766;60.318;25.044;2022-11-25T09:07:42;14;13;
73517;PMS5003;61766;60.318;25.044;2022-11-25T09:10:09;10;9;
73517;PMS5003;61766;60.318;25.044;2022-11-25T09:12:33;13;13;
73517;PMS5003;61766;60.318;25.044;2022-11-25T09:14:58;10;10;
73517;PMS5003;61766;60.318;25.044;2022-11-25T09:17:24;10;9;
73517;PMS5003;61766;60.318;25.044;2022-11-25T09:19:49;9;8;
73517;PMS5003;61766;60.318;25.044;2022-11-25T09:22:14;11;11;
73517;PMS5003;61766;60.318;25.044;2022-11-25T09:24:40;9;9;
73517;PMS5003;61766;60.318;25.044;2022-11-25T09:27:05;13;12;
73517;PMS5003;61766;60.318;25.044;2022-11-25T09:29:30;16;15;
73517;PMS5003;61766;60.318;25.044;2022-11-25T09:31:56;10;9;
73517;PMS5003;61766;60.318;25.044;2022-11-25T09:34:21;10;10;
73517;PMS5003;61766;60.318;25.044;2022-11-25T09:36:47;9;9;
73517;PMS5003;61766;60.318;25.044;2022-11-25T09:39:12;10;10;
73517;PMS5003;61766;60.318;25.044;2022-11-25T09:41:41;8;8;
73517;PMS5003;61766;60.318;25.044;2022-11-25T09:44:04;8;8;
73517;PMS5003;61766;60.318;25.044;2022-11-25T09:46:35;9;9;
73517;PMS5003;61766;60.318;25.044;2022-11-25T09:48:56;5;5;
73517;PMS5003;61766;60.318;25.044;2022-11-25T09:51:19;12;10;
73517;PMS5003;61766;60.318;25.044;2022-11-25T09:53:45;13;11;
73517;PMS5003;61766;60.318;25.044;2022-11-25T09:56:11;9;9;
73517;PMS5003;61766;60.318;25.044;2022-11-25T09:58:34;9;7;
73517;PMS5003;61766;60.318;25.044;2022-11-25T10:00:59;6;6;
73517;PMS5003;61766;60.318;25.044;2022-11-25T10:03:31;8;8;
73517;PMS5003;61766;60.318;25.044;2022-11-25T10:05:51;7;7;
73517;PMS5003;61766;60.318;25.044;2022-11-25T10:08:16;6;6;
73517;PMS5003;61766;60.318;25.044;2022-11-25T10:10:42;7;7;
73517;PMS5003;61766;60.318;25.044;2022-11-25T10:13:07;7;6;
73517;PMS5003;61766;60.318;25.044;2022-11-25T10:15:32;6;6;
73517;PMS5003;61766;60.318;25.044;2022-11-25T10:17:58;7;7;
73517;PMS5003;61766;60.318;25.044;2022-11-25T10:20:23;5;5;
73517;PMS5003;61766;60.318;25.044;2022-11-25T10:22:48;7;7;
73517;PMS5003;61766;60.318;25.044;2022-11-25T10:25:14;7;7;
73517;PMS5003;61766;60.318;25.044;2022-11-25T10:27:40;12;12;
73517;PMS5003;61766;60.318;25.044;2022-11-25T10:30:06;17;17;
73517;PMS5003;61766;60.318;25.044;2022-11-25T10:32:32;11;11;
73517;PMS5003;61766;60.318;25.044;2022-11-25T10:34:56;8;7;
73517;PMS5003;61766;60.318;25.044;2022-11-25T10:37:26;7;7;
73517;PMS5003;61766;60.318;25.044;2022-11-25T10:39:45;12;10;
73517;PMS5003;61766;60.318;25.044;2022-11-25T10:42:13;6;6;
73517;PMS5003;61766;60.318;25.044;2022-11-25T10:44:37;6;6;
73517;PMS5003;61766;60.318;25.044;2022-11-25T10:47:08;5;5;
73517;PMS5003;61766;60.318;25.044;2022-11-25T10:49:27;6;6;
73517;PMS5003;61766;60.318;25.044;2022-11-25T10:51:53;7;7;
73517;PMS5003;61766;60.318;25.044;2022-11-25T10:54:19;6;6;
73517;PMS5003;61766;60.318;25.044;2022-11-25T10:56:44;7;7;
73517;PMS5003;61766;60.318;25.044;2022-11-25T10:59:11;7;7;
73517;PMS5003;61766;60.318;25.044;2022-11-25T11:01:34;10;10;
73517;PMS5003;61766;60.318;25.044;2022-11-25T11:04:02;9;8;
73517;PMS5003;61766;60.318;25.044;2022-11-25T11:06:27;9;9;
73517;PMS5003;61766;60.318;25.044;2022-11-25T11:08:50;9;8;
73517;PMS5003;61766;60.318;25.044;2022-11-25T11:11:17;9;8;
73517;PMS5003;61766;60.318;25.044;2022-11-25T11:13:40;8;7;
73517;PMS5003;61766;60.318;25.044;2022-11-25T11:20:57;6;6;
73517;PMS5003;61766;60.318;25.044;2022-11-25T11:23:22;6;6;
73517;PMS5003;61766;60.318;25.044;2022-11-25T11:25:54;7;7;
73517;PMS5003;61766;60.318;25.044;2022-11-25T11:30:37;7;7;
73517;PMS5003;61766;60.318;25.044;2022-11-25T11:33:04;9;9;
73517;PMS5003;61766;60.318;25.044;2022-11-25T11:35:33;8;8;
73517;PMS5003;61766;60.318;25.044;2022-11-25T11:37:55;7;6;
73517;PMS5003;61766;60.318;25.044;2022-11-25T11:40:24;6;6;
73517;PMS5003;61766;60.318;25.044;2022-11-25T11:42:48;5;5;
73517;PMS5003;61766;60.318;25.044;2022-11-25T11:45:13;6;5;
73517;PMS5003;61766;60.318;25.044;2022-11-25T11:47:36;6;6;
73517;PMS5003;61766;60.318;25.044;2022-11-25T11:50:02;7;6;
73517;PMS5003;61766;60.318;25.044;2022-11-25T11:52:27;6;5;
73517;PMS5003;61766;60.318;25.044;2022-11-25T11:54:51;4;4;
73517;PMS5003;61766;60.318;25.044;2022-11-25T11:57:18;7;7;
73517;PMS5003;61766;60.318;25.044;2022-11-25T11:59:43;5;5;
73517;PMS5003;61766;60.318;25.044;2022-11-25T12:02:13;6;4;
73517;PMS5003;61766;60.318;25.044;2022-11-25T12:04:35;6;6;
73517;PMS5003;61766;60.318;25.044;2022-11-25T12:06:59;7;6;
73517;PMS5003;61766;60.318;25.044;2022-11-25T12:09:23;6;5;
73517;PMS5003;61766;60.318;25.044;2022-11-25T12:11:49;8;6;
73517;PMS5003;61766;60.318;25.044;2022-11-25T12:14:16;7;7;
73517;PMS5003;61766;60.318;25.044;2022-11-25T12:16:39;5;5;
73517;PMS5003;61766;60.318;25.044;2022-11-25T12:19:05;6;6;
73517;PMS5003;61766;60.318;25.044;2022-11-25T12:21:34;7;7;
73517;PMS5003;61766;60.318;25.044;2022-11-25T12:23:55;5;5;
73517;PMS5003;61766;60.318;25.044;2022-11-25T12:26:21;6;5;
73517;PMS5003;61766;60.318;25.044;2022-11-25T12:28:46;9;7;
73517;PMS5003;61766;60.318;25.044;2022-11-25T12:31:11;6;6;
73517;PMS5003;61766;60.318;25.044;2022-11-25T12:33:39;8;8;
73517;PMS5003;61766;60.318;25.044;2022-11-25T12:36:01;13;12;
73517;PMS5003;61766;60.318;25.044;2022-11-25T12:38:29;13;13;
73517;PMS5003;61766;60.318;25.044;2022-11-25T12:40:55;15;14;
73517;PMS5003;61766;60.318;25.044;2022-11-25T12:43:21;14;13;
73517;PMS5003;61766;60.318;25.044;2022-11-25T12:45:43;18;18;
73517;PMS5003;61766;60.318;25.044;2022-11-25T12:48:09;16;13;
73517;PMS5003;61766;60.318;25.044;2022-11-25T12:50:37;18;16;
73517;PMS5003;61766;60.318;25.044;2022-11-25T12:53:00;15;14;
73517;PMS5003;61766;60.318;25.044;2022-11-25T12:55:25;16;15;
73517;PMS5003;61766;60.318;25.044;2022-11-25T12:57:56;16;15;
73517;PMS5003;61766;60.318;25.044;2022-11-25T13:00:16;21;19;
73517;PMS5003;61766;60.318;25.044;2022-11-25T13:02:45;20;18;
73517;PMS5003;61766;60.318;25.044;2022-11-25T13:07:31;14;13;
73517;PMS5003;61766;60.318;25.044;2022-11-25T13:12:25;16;16;
73517;PMS5003;61766;60.318;25.044;2022-11-25T13:15:00;21;18;
73517;PMS5003;61766;60.318;25.044;2022-11-25T13:17:12;17;16;
73517;PMS5003;61766;60.318;25.044;2022-11-25T13:19:38;15;15;
73517;PMS5003;61766;60.318;25.044;2022-11-25T13:22:03;13;13;
73517;PMS5003;61766;60.318;25.044;2022-11-25T13:24:29;14;13;
73517;PMS5003;61766;60.318;25.044;2022-11-25T13:26:53;13;13;
73517;PMS5003;61766;60.318;25.044;2022-11-25T13:36:43;18;16;
73517;PMS5003;61766;60.318;25.044;2022-11-25T13:39:04;14;12;
73517;PMS5003;61766;60.318;25.044;2022-11-25T13:41:32;16;16;
73517;PMS5003;61766;60.318;25.044;2022-11-25T13:43:54;14;13;
73517;PMS5003;61766;60.318;25.044;2022-11-25T13:48:42;15;14;
73517;PMS5003;61766;60.318;25.044;2022-11-25T13:53:33;14;13;
73517;PMS5003;61766;60.318;25.044;2022-11-25T13:58:24;18;15;
73517;PMS5003;61766;60.318;25.044;2022-11-25T14:00:59;14;13;
73517;PMS5003;61766;60.318;25.044;2022-11-25T14:05:47;16;16;
73517;PMS5003;61766;60.318;25.044;2022-11-25T14:08:10;14;14;
73517;PMS5003;61766;60.318;25.044;2022-11-25T14:10:37;20;16;
73517;PMS5003;61766;60.318;25.044;2022-11-25T14:13:05;16;15;
73517;PMS5003;61766;60.318;25.044;2022-11-25T14:15:27;14;13;
73517;PMS5003;61766;60.318;25.044;2022-11-25T14:18:03;13;13;
73517;PMS5003;61766;60.318;25.044;2022-11-25T14:20:19;14;14;
73517;PMS5003;61766;60.318;25.044;2022-11-25T14:22:46;17;15;
73517;PMS5003;61766;60.318;25.044;2022-11-25T14:25:13;14;14;
73517;PMS5003;61766;60.318;25.044;2022-11-25T14:27:32;18;17;
73517;PMS5003;61766;60.318;25.044;2022-11-25T14:29:58;17;15;
73517;PMS5003;61766;60.318;25.044;2022-11-25T14:32:24;14;14;
73517;PMS5003;61766;60.318;25.044;2022-11-25T14:34:49;16;16;
73517;PMS5003;61766;60.318;25.044;2022-11-25T14:37:15;18;18;
73517;PMS5003;61766;60.318;25.044;2022-11-25T14:39:41;18;18;
73517;PMS5003;61766;60.318;25.044;2022-11-25T14:42:05;21;21;
73517;PMS5003;61766;60.318;25.044;2022-11-25T14:44:31;15;14;
73517;PMS5003;61766;60.318;25.044;2022-11-25T14:46:56;17;15;
73517;PMS5003;61766;60.318;25.044;2022-11-25T14:49:20;17;17;
73517;PMS5003;61766;60.318;25.044;2022-11-25T14:51:46;13;13;
73517;PMS5003;61766;60.318;25.044;2022-11-25T14:54:11;13;13;
73517;PMS5003;61766;60.318;25.044;2022-11-25T14:56:36;11;10;
73517;PMS5003;61766;60.318;25.044;2022-11-25T14:59:02;17;13;
73517;PMS5003;61766;60.318;25.044;2022-11-25T15:01:28;17;15;
73517;PMS5003;61766;60.318;25.044;2022-11-25T15:06:19;13;13;
73517;PMS5003;61766;60.318;25.044;2022-11-25T15:08:45;17;14;
73517;PMS5003;61766;60.318;25.044;2022-11-25T15:11:11;20;19;
73517;PMS5003;61766;60.318;25.044;2022-11-25T15:13:36;13;12;
73517;PMS5003;61766;60.318;25.044;2022-11-25T15:16:03;13;13;
73517;PMS5003;61766;60.318;25.044;2022-11-25T15:18:25;13;13;
73517;PMS5003;61766;60.318;25.044;2022-11-25T15:20:53;16;14;
73517;PMS5003;61766;60.318;25.044;2022-11-25T15:23:18;15;15;
73517;PMS5003;61766;60.318;25.044;2022-11-25T15:30:32;19;18;
73517;PMS5003;61766;60.318;25.044;2022-11-25T15:32:57;14;14;
73517;PMS5003;61766;60.318;25.044;2022-11-25T15:35:24;21;19;
73517;PMS5003;61766;60.318;25.044;2022-11-25T15:37:48;17;16;
73517;PMS5003;61766;60.318;25.044;2022-11-25T15:42:40;20;19;
73517;PMS5003;61766;60.318;25.044;2022-11-25T15:45:06;16;16;
73517;PMS5003;61766;60.318;25.044;2022-11-25T15:47:30;24;20;
73517;PMS5003;61766;60.318;25.044;2022-11-25T15:49:57;15;14;
73517;PMS5003;61766;60.318;25.044;2022-11-25T15:52:21;14;14;
73517;PMS5003;61766;60.318;25.044;2022-11-25T15:54:47;17;17;
73517;PMS5003;61766;60.318;25.044;2022-11-25T15:57:14;17;17;
73517;PMS5003;61766;60.318;25.044;2022-11-25T15:59:40;21;20;
73517;PMS5003;61766;60.318;25.044;2022-11-25T16:04:30;19;18;
73517;PMS5003;61766;60.318;25.044;2022-11-25T16:06:55;22;21;
73517;PMS5003;61766;60.318;25.044;2022-11-25T16:09:20;17;16;
73517;PMS5003;61766;60.318;25.044;2022-11-25T16:11:46;17;17;
73517;PMS5003;61766;60.318;25.044;2022-11-25T16:14:17;22;21;
73517;PMS5003;61766;60.318;25.044;2022-11-25T16:16:36;19;19;
73517;PMS5003;61766;60.318;25.044;2022-11-25T16:19:03;19;19;
73517;PMS5003;61766;60.318;25.044;2022-11-25T16:21:27;19;18;
73517;PMS5003;61766;60.318;25.044;2022-11-25T16:23:52;17;15;
73517;PMS5003;61766;60.318;25.044;2022-11-25T16:26:18;23;22;
73517;PMS5003;61766;60.318;25.044;2022-11-25T16:31:08;22;21;
73517;PMS5003;61766;60.318;25.044;2022-11-25T16:33:33;22;21;
73517;PMS5003;61766;60.318;25.044;2022-11-25T16:35:58;18;18;
73517;PMS5003;61766;60.318;25.044;2022-11-25T16:38:24;19;18;